KSIY/SIY METAR and TAF weather

Enter ICAO airport designator
Station Type Date Time Source
KSIY METAR 2020/07/10 23:53 UTC NOAA

KSIY 102353Z AUTO VRB04KT 10SM CLR 33/03 A3005 RMK AO2 SLP161 T03280033 10339 20233 57016


Station Type Date Time Source
KSIY Decoded METAR 2020/07/10 23:53 UTC NOAA

MONTAGUE SISKIYOU COUNTY, CA, United States (KSIY) 41-46N 122-28W
Jul 10, 2020 - 07:53 PM EDT / 2020.07.10 2353 UTC
Wind: Variable at 5 MPH (4 KT):0
Visibility: 10 mile(s):0
Sky conditions: clear
Temperature: 91.0 F (32.8 C)
Dew Point: 37.9 F (3.3 C)
Relative Humidity: 15%
Pressure (altimeter): 30.05 in. Hg (1017 hPa)
Pressure tendency: 0.05 inches (1.6 hPa) lower than three hours ago
ob: KSIY 102353Z AUTO VRB04KT 10SM CLR 33/03 A3005 RMK AO2 SLP161 T03280033 10339 20233 57016
cycle: 0

Station Type Date Time Source
KSIY TAF UTC NOAA

Error!

Example: see airport list